sensor_id;sensor_type;location;lat;lon;timestamp;P1;durP1;ratioP1;P2;durP2;ratioP2
61038;SDS011;46919;45.816;3.104;2023-08-07T00:00:03;3.10;;;0.75;;
61038;SDS011;46919;45.816;3.104;2023-08-07T00:02:29;1.75;;;0.70;;
61038;SDS011;46919;45.816;3.104;2023-08-07T00:04:55;2.15;;;0.82;;
61038;SDS011;46919;45.816;3.104;2023-08-07T00:07:20;4.90;;;0.88;;
61038;SDS011;46919;45.816;3.104;2023-08-07T00:09:46;3.25;;;0.90;;
61038;SDS011;46919;45.816;3.104;2023-08-07T00:12:11;3.63;;;0.75;;
61038;SDS011;46919;45.816;3.104;2023-08-07T00:14:37;3.45;;;0.70;;
61038;SDS011;46919;45.816;3.104;2023-08-07T00:17:02;3.53;;;0.70;;
61038;SDS011;46919;45.816;3.104;2023-08-07T00:19:29;4.22;;;0.60;;
61038;SDS011;46919;45.816;3.104;2023-08-07T00:21:54;1.13;;;0.60;;
61038;SDS011;46919;45.816;3.104;2023-08-07T00:24:20;2.78;;;0.60;;
61038;SDS011;46919;45.816;3.104;2023-08-07T00:26:45;2.30;;;0.75;;
61038;SDS011;46919;45.816;3.104;2023-08-07T00:29:10;2.65;;;0.82;;
61038;SDS011;46919;45.816;3.104;2023-08-07T00:31:36;3.17;;;0.80;;
61038;SDS011;46919;45.816;3.104;2023-08-07T00:34:01;4.50;;;0.80;;
61038;SDS011;46919;45.816;3.104;2023-08-07T00:36:29;1.83;;;0.70;;
61038;SDS011;46919;45.816;3.104;2023-08-07T00:38:54;3.78;;;0.82;;
61038;SDS011;46919;45.816;3.104;2023-08-07T00:41:20;3.10;;;0.80;;
61038;SDS011;46919;45.816;3.104;2023-08-07T00:43:46;2.30;;;0.77;;
61038;SDS011;46919;45.816;3.104;2023-08-07T00:46:11;4.20;;;0.90;;
61038;SDS011;46919;45.816;3.104;2023-08-07T00:48:37;3.72;;;1.00;;
61038;SDS011;46919;45.816;3.104;2023-08-07T00:51:03;4.38;;;0.80;;
61038;SDS011;46919;45.816;3.104;2023-08-07T00:53:29;2.58;;;0.60;;
61038;SDS011;46919;45.816;3.104;2023-08-07T00:55:55;4.10;;;0.95;;
61038;SDS011;46919;45.816;3.104;2023-08-07T00:58:22;2.38;;;0.70;;
61038;SDS011;46919;45.816;3.104;2023-08-07T01:00:48;4.75;;;0.85;;
61038;SDS011;46919;45.816;3.104;2023-08-07T01:03:14;3.58;;;0.80;;
61038;SDS011;46919;45.816;3.104;2023-08-07T01:05:39;2.78;;;1.02;;
61038;SDS011;46919;45.816;3.104;2023-08-07T01:08:04;4.20;;;0.88;;
61038;SDS011;46919;45.816;3.104;2023-08-07T01:13:24;3.05;;;0.70;;
61038;SDS011;46919;45.816;3.104;2023-08-07T01:15:55;1.95;;;0.80;;
61038;SDS011;46919;45.816;3.104;2023-08-07T01:18:24;3.40;;;0.85;;
61038;SDS011;46919;45.816;3.104;2023-08-07T01:20:51;4.10;;;1.10;;
61038;SDS011;46919;45.816;3.104;2023-08-07T01:23:17;1.77;;;1.13;;
61038;SDS011;46919;45.816;3.104;2023-08-07T01:25:43;3.50;;;0.60;;
61038;SDS011;46919;45.816;3.104;2023-08-07T01:30:42;3.55;;;0.70;;
61038;SDS011;46919;45.816;3.104;2023-08-07T01:33:24;2.05;;;0.68;;
61038;SDS011;46919;45.816;3.104;2023-08-07T01:36:01;3.85;;;0.85;;
61038;SDS011;46919;45.816;3.104;2023-08-07T01:38:31;3.28;;;0.90;;
61038;SDS011;46919;45.816;3.104;2023-08-07T01:40:58;3.20;;;0.70;;
61038;SDS011;46919;45.816;3.104;2023-08-07T01:43:25;5.10;;;0.88;;
61038;SDS011;46919;45.816;3.104;2023-08-07T01:45:52;4.35;;;0.60;;
61038;SDS011;46919;45.816;3.104;2023-08-07T01:48:17;4.65;;;0.77;;
61038;SDS011;46919;45.816;3.104;2023-08-07T01:50:43;3.67;;;0.68;;
61038;SDS011;46919;45.816;3.104;2023-08-07T01:53:10;2.67;;;0.70;;
61038;SDS011;46919;45.816;3.104;2023-08-07T01:55:35;4.63;;;0.77;;
61038;SDS011;46919;45.816;3.104;2023-08-07T01:58:01;2.72;;;1.00;;
61038;SDS011;46919;45.816;3.104;2023-08-07T02:00:27;4.95;;;0.70;;
61038;SDS011;46919;45.816;3.104;2023-08-07T02:02:52;3.30;;;0.95;;
61038;SDS011;46919;45.816;3.104;2023-08-07T02:05:18;1.88;;;0.70;;
61038;SDS011;46919;45.816;3.104;2023-08-07T02:07:44;3.33;;;0.73;;
61038;SDS011;46919;45.816;3.104;2023-08-07T02:10:09;2.35;;;0.90;;
61038;SDS011;46919;45.816;3.104;2023-08-07T02:12:34;3.15;;;0.95;;
61038;SDS011;46919;45.816;3.104;2023-08-07T02:15:00;3.70;;;0.70;;
61038;SDS011;46919;45.816;3.104;2023-08-07T02:17:27;2.88;;;0.77;;
61038;SDS011;46919;45.816;3.104;2023-08-07T02:19:53;3.88;;;1.23;;
61038;SDS011;46919;45.816;3.104;2023-08-07T02:22:18;4.60;;;0.88;;
61038;SDS011;46919;45.816;3.104;2023-08-07T02:24:44;2.38;;;0.80;;
61038;SDS011;46919;45.816;3.104;2023-08-07T02:27:10;1.48;;;0.75;;
61038;SDS011;46919;45.816;3.104;2023-08-07T02:29:35;4.38;;;1.00;;
61038;SDS011;46919;45.816;3.104;2023-08-07T02:32:01;3.95;;;0.90;;
61038;SDS011;46919;45.816;3.104;2023-08-07T02:34:28;3.08;;;1.08;;
61038;SDS011;46919;45.816;3.104;2023-08-07T02:36:56;4.25;;;1.15;;
61038;SDS011;46919;45.816;3.104;2023-08-07T02:39:22;2.85;;;0.90;;
61038;SDS011;46919;45.816;3.104;2023-08-07T02:41:47;3.60;;;0.90;;
61038;SDS011;46919;45.816;3.104;2023-08-07T02:44:13;5.82;;;1.17;;
61038;SDS011;46919;45.816;3.104;2023-08-07T02:46:38;3.53;;;1.00;;
61038;SDS011;46919;45.816;3.104;2023-08-07T02:49:04;3.20;;;0.93;;
61038;SDS011;46919;45.816;3.104;2023-08-07T02:51:29;4.63;;;0.77;;
61038;SDS011;46919;45.816;3.104;2023-08-07T02:53:55;3.40;;;1.00;;
61038;SDS011;46919;45.816;3.104;2023-08-07T02:56:20;2.78;;;0.95;;
61038;SDS011;46919;45.816;3.104;2023-08-07T02:58:46;2.45;;;0.68;;
61038;SDS011;46919;45.816;3.104;2023-08-07T03:01:11;4.60;;;1.10;;
61038;SDS011;46919;45.816;3.104;2023-08-07T03:03:38;3.10;;;1.10;;
61038;SDS011;46919;45.816;3.104;2023-08-07T03:06:03;4.55;;;1.13;;
61038;SDS011;46919;45.816;3.104;2023-08-07T03:08:29;3.03;;;0.80;;
61038;SDS011;46919;45.816;3.104;2023-08-07T03:10:55;4.47;;;0.93;;
61038;SDS011;46919;45.816;3.104;2023-08-07T03:13:22;2.95;;;1.10;;
61038;SDS011;46919;45.816;3.104;2023-08-07T03:15:58;4.88;;;0.80;;
61038;SDS011;46919;45.816;3.104;2023-08-07T03:18:24;3.38;;;0.70;;
61038;SDS011;46919;45.816;3.104;2023-08-07T03:20:50;4.18;;;0.90;;
61038;SDS011;46919;45.816;3.104;2023-08-07T03:23:15;3.72;;;0.82;;
61038;SDS011;46919;45.816;3.104;2023-08-07T03:25:41;2.85;;;0.82;;
61038;SDS011;46919;45.816;3.104;2023-08-07T03:28:06;4.30;;;0.93;;
61038;SDS011;46919;45.816;3.104;2023-08-07T03:30:32;1.73;;;0.73;;
61038;SDS011;46919;45.816;3.104;2023-08-07T03:32:57;5.82;;;1.17;;
61038;SDS011;46919;45.816;3.104;2023-08-07T03:35:22;2.40;;;0.82;;
61038;SDS011;46919;45.816;3.104;2023-08-07T03:37:48;2.03;;;0.60;;
61038;SDS011;46919;45.816;3.104;2023-08-07T03:40:13;2.22;;;0.77;;
61038;SDS011;46919;45.816;3.104;2023-08-07T03:42:39;1.30;;;0.95;;
61038;SDS011;46919;45.816;3.104;2023-08-07T03:45:04;3.17;;;0.82;;
61038;SDS011;46919;45.816;3.104;2023-08-07T03:47:30;3.22;;;1.00;;
61038;SDS011;46919;45.816;3.104;2023-08-07T03:49:56;2.88;;;1.08;;
61038;SDS011;46919;45.816;3.104;2023-08-07T03:52:21;2.40;;;0.75;;
61038;SDS011;46919;45.816;3.104;2023-08-07T03:54:46;4.82;;;0.85;;
61038;SDS011;46919;45.816;3.104;2023-08-07T03:57:12;4.93;;;1.10;;
61038;SDS011;46919;45.816;3.104;2023-08-07T03:59:37;2.88;;;1.00;;
61038;SDS011;46919;45.816;3.104;2023-08-07T04:02:03;2.22;;;1.05;;
61038;SDS011;46919;45.816;3.104;2023-08-07T04:04:28;3.15;;;1.10;;
61038;SDS011;46919;45.816;3.104;2023-08-07T04:06:54;2.13;;;0.77;;
61038;SDS011;46919;45.816;3.104;2023-08-07T04:09:19;2.55;;;0.90;;
61038;SDS011;46919;45.816;3.104;2023-08-07T04:11:45;2.65;;;1.00;;
61038;SDS011;46919;45.816;3.104;2023-08-07T04:14:10;2.60;;;0.90;;
61038;SDS011;46919;45.816;3.104;2023-08-07T04:16:36;2.22;;;1.02;;
61038;SDS011;46919;45.816;3.104;2023-08-07T04:19:02;2.55;;;0.95;;
61038;SDS011;46919;45.816;3.104;2023-08-07T04:21:27;2.30;;;1.10;;
61038;SDS011;46919;45.816;3.104;2023-08-07T04:23:53;2.10;;;1.00;;
61038;SDS011;46919;45.816;3.104;2023-08-07T04:26:18;3.42;;;0.68;;
61038;SDS011;46919;45.816;3.104;2023-08-07T04:28:43;1.90;;;0.82;;
61038;SDS011;46919;45.816;3.104;2023-08-07T04:31:09;1.33;;;0.70;;
61038;SDS011;46919;45.816;3.104;2023-08-07T04:33:34;3.83;;;0.80;;
61038;SDS011;46919;45.816;3.104;2023-08-07T04:36:01;2.33;;;0.90;;
61038;SDS011;46919;45.816;3.104;2023-08-07T04:38:26;3.08;;;0.95;;
61038;SDS011;46919;45.816;3.104;2023-08-07T04:40:52;2.35;;;1.00;;
61038;SDS011;46919;45.816;3.104;2023-08-07T04:43:18;4.32;;;1.17;;
61038;SDS011;46919;45.816;3.104;2023-08-07T04:45:47;2.30;;;0.85;;
61038;SDS011;46919;45.816;3.104;2023-08-07T04:48:12;4.97;;;1.25;;
61038;SDS011;46919;45.816;3.104;2023-08-07T04:50:39;4.00;;;1.05;;
61038;SDS011;46919;45.816;3.104;2023-08-07T04:53:05;3.80;;;1.23;;
61038;SDS011;46919;45.816;3.104;2023-08-07T04:55:30;3.17;;;0.90;;
61038;SDS011;46919;45.816;3.104;2023-08-07T04:57:57;3.60;;;0.75;;
61038;SDS011;46919;45.816;3.104;2023-08-07T05:00:23;3.53;;;1.13;;
61038;SDS011;46919;45.816;3.104;2023-08-07T05:02:49;2.88;;;1.05;;
61038;SDS011;46919;45.816;3.104;2023-08-07T05:05:14;4.35;;;1.00;;
61038;SDS011;46919;45.816;3.104;2023-08-07T05:07:40;2.03;;;1.05;;
61038;SDS011;46919;45.816;3.104;2023-08-07T05:10:06;3.28;;;1.20;;
61038;SDS011;46919;45.816;3.104;2023-08-07T05:12:32;2.78;;;0.93;;
61038;SDS011;46919;45.816;3.104;2023-08-07T05:14:58;2.85;;;1.02;;
61038;SDS011;46919;45.816;3.104;2023-08-07T05:17:23;1.92;;;0.80;;
61038;SDS011;46919;45.816;3.104;2023-08-07T05:19:49;3.80;;;1.00;;
61038;SDS011;46919;45.816;3.104;2023-08-07T05:22:15;1.95;;;1.10;;
61038;SDS011;46919;45.816;3.104;2023-08-07T05:24:40;4.70;;;1.05;;
61038;SDS011;46919;45.816;3.104;2023-08-07T05:27:06;1.50;;;0.88;;
61038;SDS011;46919;45.816;3.104;2023-08-07T05:29:33;3.08;;;1.10;;
61038;SDS011;46919;45.816;3.104;2023-08-07T05:31:59;2.45;;;1.00;;
61038;SDS011;46919;45.816;3.104;2023-08-07T05:34:25;2.85;;;1.10;;
61038;SDS011;46919;45.816;3.104;2023-08-07T05:36:50;2.78;;;1.20;;
61038;SDS011;46919;45.816;3.104;2023-08-07T05:39:15;3.72;;;1.00;;
61038;SDS011;46919;45.816;3.104;2023-08-07T05:41:41;1.30;;;0.98;;
61038;SDS011;46919;45.816;3.104;2023-08-07T05:44:06;1.67;;;1.05;;
61038;SDS011;46919;45.816;3.104;2023-08-07T05:46:32;2.08;;;1.00;;
61038;SDS011;46919;45.816;3.104;2023-08-07T05:48:57;2.55;;;1.00;;
61038;SDS011;46919;45.816;3.104;2023-08-07T05:51:22;5.18;;;1.20;;
61038;SDS011;46919;45.816;3.104;2023-08-07T05:53:48;4.70;;;1.20;;
61038;SDS011;46919;45.816;3.104;2023-08-07T05:56:13;5.97;;;1.20;;
61038;SDS011;46919;45.816;3.104;2023-08-07T05:58:39;3.95;;;1.00;;
61038;SDS011;46919;45.816;3.104;2023-08-07T06:01:05;4.45;;;1.40;;
61038;SDS011;46919;45.816;3.104;2023-08-07T06:03:31;5.55;;;1.73;;
61038;SDS011;46919;45.816;3.104;2023-08-07T06:05:57;2.30;;;1.42;;
61038;SDS011;46919;45.816;3.104;2023-08-07T06:08:22;6.70;;;1.50;;
61038;SDS011;46919;45.816;3.104;2023-08-07T06:10:48;6.90;;;1.67;;
61038;SDS011;46919;45.816;3.104;2023-08-07T06:13:13;3.30;;;1.40;;
61038;SDS011;46919;45.816;3.104;2023-08-07T06:15:38;3.10;;;1.30;;
61038;SDS011;46919;45.816;3.104;2023-08-07T06:18:04;1.65;;;1.20;;
61038;SDS011;46919;45.816;3.104;2023-08-07T06:20:29;2.88;;;1.30;;
61038;SDS011;46919;45.816;3.104;2023-08-07T06:22:55;4.45;;;1.58;;
61038;SDS011;46919;45.816;3.104;2023-08-07T06:25:20;8.73;;;2.20;;
61038;SDS011;46919;45.816;3.104;2023-08-07T06:27:46;3.78;;;1.23;;
61038;SDS011;46919;45.816;3.104;2023-08-07T06:30:11;6.28;;;1.55;;
61038;SDS011;46919;45.816;3.104;2023-08-07T06:32:39;4.00;;;1.30;;
61038;SDS011;46919;45.816;3.104;2023-08-07T06:35:04;4.10;;;1.10;;
61038;SDS011;46919;45.816;3.104;2023-08-07T06:37:30;2.92;;;1.23;;
61038;SDS011;46919;45.816;3.104;2023-08-07T06:39:56;5.40;;;1.45;;
61038;SDS011;46919;45.816;3.104;2023-08-07T06:42:21;2.78;;;1.30;;
61038;SDS011;46919;45.816;3.104;2023-08-07T06:44:47;5.55;;;1.42;;
61038;SDS011;46919;45.816;3.104;2023-08-07T06:47:12;4.22;;;1.60;;
61038;SDS011;46919;45.816;3.104;2023-08-07T06:49:38;5.13;;;1.40;;
61038;SDS011;46919;45.816;3.104;2023-08-07T06:52:04;10.88;;;1.60;;
61038;SDS011;46919;45.816;3.104;2023-08-07T06:54:30;6.72;;;1.50;;
61038;SDS011;46919;45.816;3.104;2023-08-07T06:56:55;5.68;;;1.40;;
61038;SDS011;46919;45.816;3.104;2023-08-07T06:59:20;6.22;;;1.60;;
61038;SDS011;46919;45.816;3.104;2023-08-07T07:01:46;5.63;;;1.63;;
61038;SDS011;46919;45.816;3.104;2023-08-07T07:04:11;6.35;;;2.03;;
61038;SDS011;46919;45.816;3.104;2023-08-07T07:06:37;6.93;;;1.80;;
61038;SDS011;46919;45.816;3.104;2023-08-07T07:09:03;4.03;;;1.55;;
61038;SDS011;46919;45.816;3.104;2023-08-07T07:11:28;3.85;;;1.40;;
61038;SDS011;46919;45.816;3.104;2023-08-07T07:13:53;2.95;;;1.88;;
61038;SDS011;46919;45.816;3.104;2023-08-07T07:16:19;7.38;;;2.25;;
61038;SDS011;46919;45.816;3.104;2023-08-07T07:18:47;3.58;;;1.73;;
61038;SDS011;46919;45.816;3.104;2023-08-07T07:21:13;4.10;;;1.75;;
61038;SDS011;46919;45.816;3.104;2023-08-07T07:23:38;4.32;;;1.30;;
61038;SDS011;46919;45.816;3.104;2023-08-07T07:26:04;5.28;;;1.70;;
61038;SDS011;46919;45.816;3.104;2023-08-07T07:28:29;4.35;;;1.30;;
61038;SDS011;46919;45.816;3.104;2023-08-07T07:30:55;3.92;;;1.30;;
61038;SDS011;46919;45.816;3.104;2023-08-07T07:33:20;2.10;;;0.90;;
61038;SDS011;46919;45.816;3.104;2023-08-07T07:35:45;4.78;;;1.20;;
61038;SDS011;46919;45.816;3.104;2023-08-07T07:38:11;6.07;;;0.90;;
61038;SDS011;46919;45.816;3.104;2023-08-07T07:40:36;4.10;;;0.88;;
61038;SDS011;46919;45.816;3.104;2023-08-07T07:43:02;4.68;;;0.90;;
61038;SDS011;46919;45.816;3.104;2023-08-07T07:45:28;4.75;;;0.90;;
61038;SDS011;46919;45.816;3.104;2023-08-07T07:47:54;3.97;;;1.00;;
61038;SDS011;46919;45.816;3.104;2023-08-07T07:50:19;3.33;;;0.90;;
61038;SDS011;46919;45.816;3.104;2023-08-07T07:52:45;1.63;;;0.60;;
61038;SDS011;46919;45.816;3.104;2023-08-07T07:55:10;5.40;;;0.90;;
61038;SDS011;46919;45.816;3.104;2023-08-07T07:57:37;3.75;;;0.82;;
61038;SDS011;46919;45.816;3.104;2023-08-07T08:00:02;4.60;;;0.77;;
61038;SDS011;46919;45.816;3.104;2023-08-07T08:02:30;4.95;;;1.40;;
61038;SDS011;46919;45.816;3.104;2023-08-07T08:04:55;3.30;;;0.90;;
61038;SDS011;46919;45.816;3.104;2023-08-07T08:07:21;2.08;;;0.80;;
61038;SDS011;46919;45.816;3.104;2023-08-07T08:09:46;3.90;;;0.80;;
61038;SDS011;46919;45.816;3.104;2023-08-07T08:12:12;3.42;;;1.00;;
61038;SDS011;46919;45.816;3.104;2023-08-07T08:14:37;4.32;;;0.88;;
61038;SDS011;46919;45.816;3.104;2023-08-07T08:17:03;2.25;;;0.80;;
61038;SDS011;46919;45.816;3.104;2023-08-07T08:19:29;3.28;;;1.00;;
61038;SDS011;46919;45.816;3.104;2023-08-07T08:21:54;2.55;;;0.80;;
61038;SDS011;46919;45.816;3.104;2023-08-07T08:24:19;2.85;;;1.20;;
61038;SDS011;46919;45.816;3.104;2023-08-07T08:26:45;2.30;;;1.10;;
61038;SDS011;46919;45.816;3.104;2023-08-07T08:29:13;2.25;;;1.02;;
61038;SDS011;46919;45.816;3.104;2023-08-07T08:31:39;3.35;;;1.10;;
61038;SDS011;46919;45.816;3.104;2023-08-07T08:34:04;1.67;;;0.95;;
61038;SDS011;46919;45.816;3.104;2023-08-07T08:36:30;3.75;;;1.00;;
61038;SDS011;46919;45.816;3.104;2023-08-07T08:38:55;1.40;;;0.80;;
61038;SDS011;46919;45.816;3.104;2023-08-07T08:41:21;2.25;;;0.90;;
61038;SDS011;46919;45.816;3.104;2023-08-07T08:43:46;2.22;;;0.90;;
61038;SDS011;46919;45.816;3.104;2023-08-07T08:46:14;3.70;;;0.95;;
61038;SDS011;46919;45.816;3.104;2023-08-07T08:48:41;2.22;;;1.00;;
61038;SDS011;46919;45.816;3.104;2023-08-07T08:51:12;2.08;;;1.00;;
61038;SDS011;46919;45.816;3.104;2023-08-07T08:53:38;3.65;;;0.80;;
61038;SDS011;46919;45.816;3.104;2023-08-07T08:56:04;4.10;;;1.10;;
61038;SDS011;46919;45.816;3.104;2023-08-07T08:58:31;2.95;;;1.30;;
61038;SDS011;46919;45.816;3.104;2023-08-07T09:00:57;2.97;;;1.00;;
61038;SDS011;46919;45.816;3.104;2023-08-07T09:03:23;2.30;;;0.80;;
61038;SDS011;46919;45.816;3.104;2023-08-07T09:05:50;3.58;;;0.98;;
61038;SDS011;46919;45.816;3.104;2023-08-07T09:08:19;2.17;;;0.70;;
61038;SDS011;46919;45.816;3.104;2023-08-07T09:10:46;1.98;;;0.77;;
61038;SDS011;46919;45.816;3.104;2023-08-07T09:13:13;4.40;;;1.00;;
61038;SDS011;46919;45.816;3.104;2023-08-07T09:15:39;3.92;;;1.08;;
61038;SDS011;46919;45.816;3.104;2023-08-07T09:18:06;1.65;;;0.70;;
61038;SDS011;46919;45.816;3.104;2023-08-07T09:20:33;1.60;;;0.65;;
61038;SDS011;46919;45.816;3.104;2023-08-07T09:23:00;3.55;;;0.88;;
61038;SDS011;46919;45.816;3.104;2023-08-07T09:25:32;2.92;;;1.00;;
61038;SDS011;46919;45.816;3.104;2023-08-07T09:28:01;3.25;;;0.90;;
61038;SDS011;46919;45.816;3.104;2023-08-07T09:30:29;0.98;;;0.65;;
61038;SDS011;46919;45.816;3.104;2023-08-07T09:33:01;1.38;;;0.77;;
61038;SDS011;46919;45.816;3.104;2023-08-07T09:35:27;2.33;;;0.82;;
61038;SDS011;46919;45.816;3.104;2023-08-07T09:37:59;2.65;;;1.55;;
61038;SDS011;46919;45.816;3.104;2023-08-07T09:40:24;2.05;;;0.95;;
61038;SDS011;46919;45.816;3.104;2023-08-07T09:42:50;1.88;;;0.90;;
61038;SDS011;46919;45.816;3.104;2023-08-07T09:45:21;3.40;;;0.90;;
61038;SDS011;46919;45.816;3.104;2023-08-07T09:48:01;2.97;;;0.70;;
61038;SDS011;46919;45.816;3.104;2023-08-07T09:50:31;2.15;;;1.00;;
61038;SDS011;46919;45.816;3.104;2023-08-07T09:52:56;1.33;;;0.90;;
61038;SDS011;46919;45.816;3.104;2023-08-07T09:55:26;2.78;;;0.95;;
61038;SDS011;46919;45.816;3.104;2023-08-07T09:57:52;2.88;;;0.98;;
61038;SDS011;46919;45.816;3.104;2023-08-07T10:00:18;5.80;;;1.00;;
61038;SDS011;46919;45.816;3.104;2023-08-07T10:02:47;2.50;;;0.80;;
61038;SDS011;46919;45.816;3.104;2023-08-07T10:05:14;3.58;;;1.00;;
61038;SDS011;46919;45.816;3.104;2023-08-07T10:07:40;4.20;;;0.95;;
61038;SDS011;46919;45.816;3.104;2023-08-07T10:10:07;2.08;;;0.93;;
61038;SDS011;46919;45.816;3.104;2023-08-07T10:12:33;1.52;;;1.00;;
61038;SDS011;46919;45.816;3.104;2023-08-07T10:14:59;3.13;;;0.77;;
61038;SDS011;46919;45.816;3.104;2023-08-07T10:17:25;2.38;;;0.80;;
61038;SDS011;46919;45.816;3.104;2023-08-07T10:19:51;2.75;;;0.80;;
61038;SDS011;46919;45.816;3.104;2023-08-07T10:22:20;1.33;;;0.60;;
61038;SDS011;46919;45.816;3.104;2023-08-07T10:24:50;1.15;;;0.85;;
61038;SDS011;46919;45.816;3.104;2023-08-07T10:27:18;4.32;;;0.73;;
61038;SDS011;46919;45.816;3.104;2023-08-07T10:29:47;2.17;;;0.60;;
61038;SDS011;46919;45.816;3.104;2023-08-07T10:32:14;1.95;;;0.80;;
61038;SDS011;46919;45.816;3.104;2023-08-07T10:34:46;0.55;;;0.50;;
61038;SDS011;46919;45.816;3.104;2023-08-07T10:37:31;1.25;;;0.63;;
61038;SDS011;46919;45.816;3.104;2023-08-07T10:40:13;1.17;;;0.80;;
61038;SDS011;46919;45.816;3.104;2023-08-07T10:43:12;1.67;;;0.60;;
61038;SDS011;46919;45.816;3.104;2023-08-07T10:45:42;1.92;;;0.60;;
61038;SDS011;46919;45.816;3.104;2023-08-07T10:48:08;2.00;;;0.50;;
61038;SDS011;46919;45.816;3.104;2023-08-07T10:53:20;1.70;;;0.50;;
61038;SDS011;46919;45.816;3.104;2023-08-07T10:55:53;1.38;;;0.60;;
61038;SDS011;46919;45.816;3.104;2023-08-07T10:58:23;1.23;;;0.60;;
61038;SDS011;46919;45.816;3.104;2023-08-07T11:00:49;1.73;;;0.80;;
61038;SDS011;46919;45.816;3.104;2023-08-07T11:03:27;0.85;;;0.47;;
61038;SDS011;46919;45.816;3.104;2023-08-07T11:05:53;0.95;;;0.55;;
61038;SDS011;46919;45.816;3.104;2023-08-07T11:08:23;1.25;;;0.70;;
61038;SDS011;46919;45.816;3.104;2023-08-07T11:10:50;1.27;;;0.55;;
61038;SDS011;46919;45.816;3.104;2023-08-07T11:13:16;1.38;;;0.70;;
61038;SDS011;46919;45.816;3.104;2023-08-07T11:15:41;1.13;;;0.80;;
61038;SDS011;46919;45.816;3.104;2023-08-07T11:18:07;1.17;;;0.60;;
61038;SDS011;46919;45.816;3.104;2023-08-07T11:20:32;1.20;;;0.60;;
61038;SDS011;46919;45.816;3.104;2023-08-07T11:23:00;1.33;;;0.63;;
61038;SDS011;46919;45.816;3.104;2023-08-07T11:25:26;1.08;;;0.40;;
61038;SDS011;46919;45.816;3.104;2023-08-07T11:27:51;1.58;;;0.60;;
61038;SDS011;46919;45.816;3.104;2023-08-07T11:30:16;3.15;;;0.60;;
61038;SDS011;46919;45.816;3.104;2023-08-07T11:32:42;1.08;;;0.80;;
61038;SDS011;46919;45.816;3.104;2023-08-07T11:35:07;1.45;;;0.60;;
61038;SDS011;46919;45.816;3.104;2023-08-07T11:37:33;1.08;;;0.60;;
61038;SDS011;46919;45.816;3.104;2023-08-07T11:40:00;0.73;;;0.50;;
61038;SDS011;46919;45.816;3.104;2023-08-07T11:42:27;1.27;;;0.60;;
61038;SDS011;46919;45.816;3.104;2023-08-07T11:44:53;1.45;;;0.63;;
61038;SDS011;46919;45.816;3.104;2023-08-07T11:47:18;2.13;;;0.90;;
61038;SDS011;46919;45.816;3.104;2023-08-07T11:49:44;1.27;;;0.65;;
61038;SDS011;46919;45.816;3.104;2023-08-07T11:52:09;2.15;;;0.77;;
61038;SDS011;46919;45.816;3.104;2023-08-07T11:54:35;1.20;;;0.65;;
61038;SDS011;46919;45.816;3.104;2023-08-07T11:57:01;0.88;;;0.50;;
61038;SDS011;46919;45.816;3.104;2023-08-07T11:59:26;0.90;;;0.60;;
61038;SDS011;46919;45.816;3.104;2023-08-07T12:01:52;1.73;;;0.50;;
61038;SDS011;46919;45.816;3.104;2023-08-07T12:04:17;0.70;;;0.50;;
61038;SDS011;46919;45.816;3.104;2023-08-07T12:06:52;1.23;;;0.60;;
61038;SDS011;46919;45.816;3.104;2023-08-07T12:09:21;1.98;;;0.85;;
61038;SDS011;46919;45.816;3.104;2023-08-07T12:11:47;1.77;;;0.82;;
61038;SDS011;46919;45.816;3.104;2023-08-07T12:14:15;1.75;;;0.98;;
61038;SDS011;46919;45.816;3.104;2023-08-07T12:16:43;1.88;;;1.00;;
61038;SDS011;46919;45.816;3.104;2023-08-07T12:19:12;2.08;;;0.77;;
61038;SDS011;46919;45.816;3.104;2023-08-07T12:21:39;1.63;;;0.60;;
61038;SDS011;46919;45.816;3.104;2023-08-07T12:24:06;3.50;;;0.52;;
61038;SDS011;46919;45.816;3.104;2023-08-07T12:26:32;0.77;;;0.47;;
61038;SDS011;46919;45.816;3.104;2023-08-07T12:28:58;2.08;;;0.98;;
61038;SDS011;46919;45.816;3.104;2023-08-07T12:31:23;1.00;;;0.77;;
61038;SDS011;46919;45.816;3.104;2023-08-07T12:33:49;1.60;;;0.70;;
61038;SDS011;46919;45.816;3.104;2023-08-07T12:36:14;2.63;;;0.90;;
61038;SDS011;46919;45.816;3.104;2023-08-07T12:38:40;1.83;;;0.50;;
61038;SDS011;46919;45.816;3.104;2023-08-07T12:41:06;0.70;;;0.60;;
61038;SDS011;46919;45.816;3.104;2023-08-07T12:43:31;2.40;;;0.77;;
61038;SDS011;46919;45.816;3.104;2023-08-07T12:45:56;1.85;;;0.82;;
61038;SDS011;46919;45.816;3.104;2023-08-07T12:48:22;2.05;;;0.75;;
61038;SDS011;46919;45.816;3.104;2023-08-07T12:50:47;1.10;;;0.60;;
61038;SDS011;46919;45.816;3.104;2023-08-07T12:53:13;2.05;;;0.57;;
61038;SDS011;46919;45.816;3.104;2023-08-07T12:55:38;1.75;;;0.68;;
61038;SDS011;46919;45.816;3.104;2023-08-07T12:58:03;0.98;;;0.60;;
61038;SDS011;46919;45.816;3.104;2023-08-07T13:00:29;0.98;;;0.52;;
61038;SDS011;46919;45.816;3.104;2023-08-07T13:02:54;2.67;;;0.70;;
61038;SDS011;46919;45.816;3.104;2023-08-07T13:05:21;1.88;;;0.50;;
61038;SDS011;46919;45.816;3.104;2023-08-07T13:07:47;0.70;;;0.60;;
61038;SDS011;46919;45.816;3.104;2023-08-07T13:10:14;1.45;;;0.57;;
61038;SDS011;46919;45.816;3.104;2023-08-07T13:12:41;1.77;;;0.73;;
61038;SDS011;46919;45.816;3.104;2023-08-07T13:15:10;2.45;;;0.60;;
61038;SDS011;46919;45.816;3.104;2023-08-07T13:17:40;2.75;;;0.73;;
61038;SDS011;46919;45.816;3.104;2023-08-07T13:20:07;1.45;;;0.60;;
61038;SDS011;46919;45.816;3.104;2023-08-07T13:22:34;0.82;;;0.60;;
61038;SDS011;46919;45.816;3.104;2023-08-07T13:25:02;1.48;;;0.75;;
61038;SDS011;46919;45.816;3.104;2023-08-07T13:27:29;1.63;;;0.50;;
61038;SDS011;46919;45.816;3.104;2023-08-07T13:29:55;1.77;;;0.50;;
61038;SDS011;46919;45.816;3.104;2023-08-07T13:32:20;1.27;;;0.60;;
61038;SDS011;46919;45.816;3.104;2023-08-07T13:34:46;1.20;;;0.57;;
61038;SDS011;46919;45.816;3.104;2023-08-07T13:37:11;2.00;;;0.60;;
61038;SDS011;46919;45.816;3.104;2023-08-07T13:39:38;0.90;;;0.50;;
61038;SDS011;46919;45.816;3.104;2023-08-07T13:42:03;2.83;;;0.50;;
61038;SDS011;46919;45.816;3.104;2023-08-07T13:44:28;0.70;;;0.55;;
61038;SDS011;46919;45.816;3.104;2023-08-07T13:46:54;0.77;;;0.55;;
61038;SDS011;46919;45.816;3.104;2023-08-07T13:49:21;1.98;;;0.90;;
61038;SDS011;46919;45.816;3.104;2023-08-07T13:51:48;1.38;;;0.60;;
61038;SDS011;46919;45.816;3.104;2023-08-07T13:54:14;1.40;;;0.60;;
61038;SDS011;46919;45.816;3.104;2023-08-07T13:56:39;1.00;;;0.60;;
61038;SDS011;46919;45.816;3.104;2023-08-07T13:59:05;1.63;;;0.57;;
61038;SDS011;46919;45.816;3.104;2023-08-07T14:01:30;2.25;;;0.80;;
61038;SDS011;46919;45.816;3.104;2023-08-07T14:03:58;3.00;;;0.60;;
61038;SDS011;46919;45.816;3.104;2023-08-07T14:06:23;1.70;;;0.70;;
61038;SDS011;46919;45.816;3.104;2023-08-07T14:08:49;1.63;;;0.85;;
61038;SDS011;46919;45.816;3.104;2023-08-07T14:11:14;1.92;;;0.50;;
61038;SDS011;46919;45.816;3.104;2023-08-07T14:13:40;1.63;;;0.57;;
61038;SDS011;46919;45.816;3.104;2023-08-07T14:16:06;2.42;;;0.45;;
61038;SDS011;46919;45.816;3.104;2023-08-07T14:18:32;2.10;;;0.70;;
61038;SDS011;46919;45.816;3.104;2023-08-07T14:20:57;0.82;;;0.50;;
61038;SDS011;46919;45.816;3.104;2023-08-07T14:23:23;1.23;;;0.60;;
61038;SDS011;46919;45.816;3.104;2023-08-07T14:25:48;0.75;;;0.45;;
61038;SDS011;46919;45.816;3.104;2023-08-07T14:28:16;4.00;;;0.65;;
61038;SDS011;46919;45.816;3.104;2023-08-07T14:30:41;2.33;;;0.50;;
61038;SDS011;46919;45.816;3.104;2023-08-07T14:33:07;0.95;;;0.60;;
61038;SDS011;46919;45.816;3.104;2023-08-07T14:35:32;1.65;;;0.60;;
61038;SDS011;46919;45.816;3.104;2023-08-07T14:37:58;2.15;;;0.60;;
61038;SDS011;46919;45.816;3.104;2023-08-07T14:40:23;1.35;;;0.60;;
61038;SDS011;46919;45.816;3.104;2023-08-07T14:42:48;1.60;;;0.70;;
61038;SDS011;46919;45.816;3.104;2023-08-07T14:45:14;2.15;;;0.68;;
61038;SDS011;46919;45.816;3.104;2023-08-07T14:47:40;0.77;;;0.60;;
61038;SDS011;46919;45.816;3.104;2023-08-07T14:50:06;1.33;;;0.63;;